Time;durP1;ratioP1;P1;durP2;ratioP2;P2;SDS_P1;SDS_P2;PMS_P1;PMS_P2;Temp;Humidity;BMP_temperature;BMP_pressure;BME280_temperature;BME280_humidity;BME280_pressure;Samples;Min_cycle;Max_cycle;Signal;HPM_P1;HPM_P2
2022/03/26 00:00:22;;;;;;;24.17;11.65;;;5.60;99.90;;;;;;5053036;28;20080;-90
2022/03/26 00:02:54;;;;;;;18.50;9.75;;;5.50;99.90;;;;;;5063606;28;20066;-90
2022/03/26 00:05:20;;;;;;;19.80;10.57;;;5.50;99.90;;;;;;5058214;28;20055;-91
2022/03/26 00:07:45;;;;;;;20.15;9.55;;;5.40;99.90;;;;;;5079530;28;20128;-90
2022/03/26 00:10:12;;;;;;;18.07;12.27;;;5.40;99.90;;;;;;5055874;28;20521;-90
2022/03/26 00:12:41;;;;;;;19.75;9.70;;;5.50;99.90;;;;;;5055375;28;20055;-90
2022/03/26 00:15:08;;;;;;;18.77;11.48;;;5.40;99.90;;;;;;5053032;28;20131;-90
2022/03/26 00:17:34;;;;;;;19.10;10.18;;;5.30;99.90;;;;;;5035263;28;20049;-90
2022/03/26 00:20:00;;;;;;;20.45;10.85;;;5.30;99.90;;;;;;5090826;28;20057;-90
2022/03/26 00:22:26;;;;;;;19.02;11.15;;;5.90;99.90;;;;;;5039773;28;20037;-90
2022/03/26 00:24:51;;;;;;;17.60;10.35;;;5.20;99.90;;;;;;5045151;28;20089;-90
2022/03/26 00:27:17;;;;;;;21.20;12.25;;;5.20;99.90;;;;;;5035872;28;20047;-89
2022/03/26 00:29:44;;;;;;;15.37;9.50;;;5.20;99.90;;;;;;5054191;28;20040;-90
2022/03/26 00:32:10;;;;;;;;;;;5.10;99.90;;;;;;5063961;28;20045;-90
2022/03/26 00:34:36;;;;;;;23.83;10.95;;;5.10;99.90;;;;;;5070476;28;19927;-90
2022/03/26 00:37:03;;;;;;;21.23;11.68;;;5.10;99.90;;;;;;5054528;28;20044;-90
2022/03/26 00:39:29;;;;;;;19.15;10.63;;;5.10;99.90;;;;;;5053813;28;20059;-90
2022/03/26 00:41:54;;;;;;;22.98;12.00;;;5.10;99.90;;;;;;5034673;28;20049;-90
2022/03/26 00:44:20;;;;;;;17.23;10.67;;;5.10;99.90;;;;;;5051119;28;20507;-90
2022/03/26 00:46:46;;;;;;;16.87;10.67;;;5.00;99.90;;;;;;5054458;28;20045;-90
2022/03/26 00:49:13;;;;;;;24.10;11.15;;;4.90;99.90;;;;;;5053268;28;20048;-89
2022/03/26 00:51:39;;;;;;;19.95;11.13;;;5.80;99.90;;;;;;5046689;28;20048;-90
2022/03/26 00:54:08;;;;;;;20.70;11.43;;;4.90;99.90;;;;;;5051160;28;20412;-90
2022/03/26 00:56:37;;;;;;;24.80;11.52;;;4.80;99.90;;;;;;5083648;28;20048;-90
2022/03/26 00:59:03;;;;;;;27.65;12.88;;;6.00;99.90;;;;;;5053152;28;20091;-89
2022/03/26 01:01:29;;;;;;;22.50;11.43;;;5.50;99.90;;;;;;5033412;28;20153;-90
2022/03/26 01:03:54;;;;;;;21.13;12.17;;;4.80;99.90;;;;;;5037123;28;20076;-89
2022/03/26 01:06:20;;;;;;;22.83;12.60;;;4.80;99.90;;;;;;5017072;28;20120;-90
2022/03/26 01:08:46;;;;;;;27.33;14.07;;;4.20;99.90;;;;;;5060938;28;20037;-90
2022/03/26 01:11:12;;;;;;;26.52;13.15;;;4.80;99.90;;;;;;5050220;28;20097;-90
2022/03/26 01:13:39;;;;;;;28.60;15.23;;;5.10;99.90;;;;;;5087353;28;20489;-90
2022/03/26 01:16:06;;;;;;;19.92;10.30;;;4.80;99.90;;;;;;5058615;28;20049;-89
2022/03/26 01:18:32;;;;;;;21.40;12.07;;;4.50;99.90;;;;;;5074144;28;20059;-89
2022/03/26 01:20:58;;;;;;;30.38;12.68;;;4.60;99.90;;;;;;5060939;28;20048;-90
2022/03/26 01:23:23;;;;;;;22.07;13.27;;;4.60;99.90;;;;;;5073769;28;20044;-90
2022/03/26 01:25:49;;;;;;;33.40;15.63;;;4.50;99.90;;;;;;5058028;28;20048;-90
2022/03/26 01:28:15;;;;;;;20.60;12.50;;;4.50;99.90;;;;;;5038223;28;20379;-91
2022/03/26 01:30:41;;;;;;;29.95;14.57;;;5.70;99.90;;;;;;5074264;28;20036;-90
2022/03/26 01:33:06;;;;;;;25.27;13.60;;;4.50;99.90;;;;;;5056906;28;20048;-90
2022/03/26 01:35:32;;;;;;;27.93;14.27;;;4.50;99.90;;;;;;5091132;28;20357;-91
2022/03/26 01:38:01;;;;;;;25.20;14.43;;;4.40;99.90;;;;;;5079115;28;20044;-89
2022/03/26 01:40:27;;;;;;;32.35;14.18;;;4.70;99.90;;;;;;5058038;28;20044;-90
2022/03/26 01:42:54;;;;;;;29.15;15.88;;;4.50;99.90;;;;;;5076879;28;20422;-90
2022/03/26 01:45:20;;;;;;;29.83;14.55;;;4.60;99.90;;;;;;5056388;28;20102;-90
2022/03/26 01:47:46;;;;;;;24.55;15.55;;;4.40;99.90;;;;;;5073358;28;20358;-90
2022/03/26 01:50:12;;;;;;;24.40;14.70;;;4.40;99.90;;;;;;5037494;28;20049;-90
2022/03/26 01:52:37;;;;;;;27.60;13.77;;;4.40;99.90;;;;;;5053792;28;20071;-90
2022/03/26 01:55:04;;;;;;;30.47;11.63;;;4.40;99.90;;;;;;5036043;28;20102;-89
2022/03/26 01:57:30;;;;;;;28.98;15.45;;;4.30;99.90;;;;;;5072325;28;20060;-89
2022/03/26 01:59:58;;;;;;;28.60;14.30;;;4.20;99.90;;;;;;5070284;28;20082;-90
2022/03/26 02:02:25;;;;;;;31.08;15.57;;;4.50;99.90;;;;;;5081903;28;20318;-89
2022/03/26 02:04:51;;;;;;;34.45;15.80;;;4.20;99.90;;;;;;5058264;28;20036;-90
2022/03/26 02:07:17;;;;;;;34.15;14.98;;;4.20;99.90;;;;;;5072706;28;20125;-91
2022/03/26 02:09:43;;;;;;;39.07;16.37;;;5.20;99.90;;;;;;5023239;28;20468;-90
2022/03/26 02:12:23;;;;;;;27.27;16.45;;;4.20;99.90;;;;;;5056515;28;20283;-90
2022/03/26 02:14:49;;;;;;;32.90;18.58;;;4.20;99.90;;;;;;5040937;28;20063;-90
2022/03/26 02:17:17;;;;;;;33.70;18.23;;;4.90;99.90;;;;;;5040118;28;20040;-90
2022/03/26 02:20:05;;;;;;;38.58;19.20;;;4.90;99.90;;;;;;5057948;28;20203;-90
2022/03/26 02:22:31;;;;;;;36.40;20.58;;;4.00;99.90;;;;;;5071814;28;20402;-90
2022/03/26 02:24:57;;;;;;;41.53;20.47;;;4.90;99.90;;;;;;5060860;28;20064;-89
2022/03/26 02:27:25;;;;;;;51.38;24.27;;;3.90;99.90;;;;;;5075407;28;20063;-90
2022/03/26 02:29:54;;;;;;;41.42;20.67;;;4.10;99.90;;;;;;5056154;28;20402;-90
2022/03/26 02:32:20;;;;;;;43.95;21.25;;;3.90;99.90;;;;;;5056006;28;20052;-91
2022/03/26 02:34:50;;;;;;;46.35;22.70;;;3.80;99.90;;;;;;5072340;28;20040;-90
2022/03/26 02:37:16;;;;;;;38.95;20.75;;;3.80;99.90;;;;;;5066737;28;20043;-89
2022/03/26 02:39:43;;;;;;;44.77;21.20;;;3.80;99.90;;;;;;5068104;28;20636;-89
2022/03/26 02:42:09;;;;;;;45.97;18.50;;;4.50;99.90;;;;;;5055097;28;20048;-89
2022/03/26 02:44:35;;;;;;;40.40;17.43;;;3.70;99.90;;;;;;5072105;28;20098;-90
2022/03/26 02:47:00;;;;;;;30.10;16.52;;;3.90;99.90;;;;;;5055466;28;20299;-90
2022/03/26 02:49:26;;;;;;;29.77;15.63;;;3.60;99.90;;;;;;5055516;28;20045;-90
2022/03/26 02:51:52;;;;;;;27.75;18.02;;;3.60;99.90;;;;;;5056158;28;20059;-90
2022/03/26 02:54:18;;;;;;;31.95;15.48;;;4.10;99.90;;;;;;5068843;28;20171;-90
2022/03/26 02:56:54;;;;;;;21.77;13.43;;;3.60;99.90;;;;;;5055098;28;20067;-90
2022/03/26 02:59:23;;;;;;;39.38;18.63;;;4.20;99.90;;;;;;5049741;28;20058;-90
2022/03/26 03:01:50;;;;;;;27.38;14.20;;;3.40;99.90;;;;;;5047794;28;20037;-90
2022/03/26 03:04:16;;;;;;;;;;;3.30;99.90;;;;;;5082695;28;20094;-90
2022/03/26 03:06:42;;;;;;;27.98;13.30;;;3.30;99.90;;;;;;5054609;28;19920;-90
2022/03/26 03:09:08;;;;;;;24.20;14.90;;;3.30;99.90;;;;;;5031464;28;20048;-90
2022/03/26 03:11:35;;;;;;;27.70;16.50;;;3.30;99.90;;;;;;5074728;28;20551;-90
2022/03/26 03:14:04;;;;;;;35.03;14.70;;;3.30;99.90;;;;;;5068044;28;20135;-90
2022/03/26 03:16:31;;;;;;;20.80;10.60;;;3.50;99.90;;;;;;5037784;28;20077;-90
2022/03/26 03:18:57;;;;;;;;;;;3.50;99.90;;;;;;5076419;28;20145;-89
2022/03/26 03:21:23;;;;;;;27.58;11.98;;;3.10;99.90;;;;;;5074990;28;19920;-90
2022/03/26 03:23:49;;;;;;;30.92;13.32;;;3.40;99.90;;;;;;5078325;28;20170;-90
2022/03/26 03:26:15;;;;;;;32.10;12.68;;;4.00;99.90;;;;;;5039639;28;20036;-89
2022/03/26 03:28:42;;;;;;;30.83;17.30;;;3.10;99.90;;;;;;5034525;28;20053;-90
2022/03/26 03:31:09;;;;;;;30.83;15.88;;;3.10;99.90;;;;;;5072161;28;20040;-90
2022/03/26 03:33:35;;;;;;;23.38;14.80;;;3.10;99.90;;;;;;5056827;28;20043;-89
2022/03/26 03:36:00;;;;;;;31.87;14.83;;;3.90;99.90;;;;;;5045276;28;20053;-90
2022/03/26 03:38:26;;;;;;;38.00;16.55;;;3.70;99.90;;;;;;5052013;28;20093;-90
2022/03/26 03:40:52;;;;;;;28.00;15.52;;;3.00;99.90;;;;;;5054193;28;20458;-90
2022/03/26 03:43:17;;;;;;;29.95;15.38;;;3.00;99.90;;;;;;5040124;28;20117;-89
2022/03/26 03:45:44;;;;;;;33.55;14.15;;;3.00;99.90;;;;;;5063889;28;20036;-90
2022/03/26 03:48:09;;;;;;;29.13;16.07;;;3.00;99.90;;;;;;5053206;28;20041;-90
2022/03/26 03:50:35;;;;;;;30.98;15.88;;;3.00;99.90;;;;;;5054029;28;20344;-89
2022/03/26 03:53:01;;;;;;;37.28;14.50;;;2.90;99.90;;;;;;5070506;28;20127;-89
2022/03/26 03:55:28;;;;;;;36.22;17.42;;;2.90;99.90;;;;;;5037880;28;20168;-90
2022/03/26 03:57:54;;;;;;;40.30;20.25;;;3.30;99.90;;;;;;5033640;28;20056;-90
2022/03/26 04:00:20;;;;;;;37.88;18.20;;;2.30;99.90;;;;;;5087161;28;20079;-89
2022/03/26 04:02:48;;;;;;;39.23;18.87;;;3.00;99.90;;;;;;5071076;28;20045;-89
2022/03/26 04:05:14;;;;;;;30.15;16.42;;;3.50;99.90;;;;;;5038943;28;20290;-87
2022/03/26 04:07:41;;;;;;;37.40;17.98;;;3.80;99.90;;;;;;5041759;28;20114;-88
2022/03/26 04:10:09;;;;;;;39.97;20.05;;;2.80;99.90;;;;;;5051773;28;20049;-87
2022/03/26 04:12:39;;;;;;;41.78;18.15;;;2.70;99.90;;;;;;5074214;28;20083;-87
2022/03/26 04:15:07;;;;;;;44.17;21.23;;;2.80;99.90;;;;;;5051330;28;20048;-87
2022/03/26 04:17:33;;;;;;;60.90;22.98;;;2.70;99.90;;;;;;5055431;28;20049;-89
2022/03/26 04:20:00;;;;;;;39.50;22.13;;;1.90;99.90;;;;;;5054777;28;20063;-87
2022/03/26 04:22:25;;;;;;;48.83;23.77;;;2.70;99.90;;;;;;5055147;28;20380;-87
2022/03/26 04:24:51;;;;;;;41.50;23.05;;;3.70;99.90;;;;;;5053895;28;20047;-88
2022/03/26 04:27:17;;;;;;;45.88;22.83;;;2.70;99.90;;;;;;5017895;28;20048;-87
2022/03/26 04:29:42;;;;;;;39.88;23.27;;;2.70;99.90;;;;;;5048762;28;20037;-87
2022/03/26 04:32:10;;;;;;;49.85;21.90;;;2.80;99.90;;;;;;5046950;28;20469;-88
2022/03/26 04:34:36;;;;;;;50.72;22.58;;;3.90;99.90;;;;;;5060853;28;20041;-89
2022/03/26 04:37:03;;;;;;;49.25;22.90;;;3.00;99.90;;;;;;5060670;28;20055;-88
2022/03/26 04:39:29;;;;;;;54.40;23.30;;;3.00;99.90;;;;;;5054013;28;20483;-89
2022/03/26 04:41:54;;;;;;;34.90;18.15;;;4.20;99.90;;;;;;5063831;28;20080;-88
2022/03/26 04:44:20;;;;;;;42.42;19.95;;;3.00;99.90;;;;;;5054145;28;20122;-89
2022/03/26 04:46:46;;;;;;;37.77;18.60;;;3.00;99.90;;;;;;5066552;28;20067;-88
2022/03/26 04:49:11;;;;;;;47.78;20.25;;;3.00;99.90;;;;;;5041243;28;20037;-88
2022/03/26 04:51:37;;;;;;;34.50;19.13;;;3.80;99.90;;;;;;5034318;28;20486;-89
2022/03/26 04:54:03;;;;;;;41.10;20.42;;;4.00;99.90;;;;;;5057329;28;20058;-88
2022/03/26 04:56:29;;;;;;;30.65;16.02;;;3.90;99.90;;;;;;5052816;28;20052;-89
2022/03/26 04:58:55;;;;;;;31.10;17.40;;;2.90;99.90;;;;;;5073110;28;20060;-88
2022/03/26 05:01:22;;;;;;;34.60;17.55;;;3.20;99.90;;;;;;5058308;28;20105;-88
2022/03/26 05:03:48;;;;;;;55.08;21.70;;;3.50;99.90;;;;;;5061032;28;20036;-88
2022/03/26 05:06:14;;;;;;;40.28;18.13;;;2.80;99.90;;;;;;5061719;28;20051;-89
2022/03/26 05:08:40;;;;;;;51.10;20.60;;;2.70;99.90;;;;;;5087041;28;20418;-89
2022/03/26 05:11:06;;;;;;;47.38;18.85;;;2.80;99.90;;;;;;5061227;28;20141;-89
2022/03/26 05:13:32;;;;;;;47.10;21.25;;;2.80;99.90;;;;;;5040190;28;20506;-89
2022/03/26 05:15:58;;;;;;;38.58;20.48;;;2.70;99.90;;;;;;5070756;28;20439;-88
2022/03/26 05:18:24;;;;;;;29.23;18.23;;;2.70;99.90;;;;;;5103454;28;20048;-88
2022/03/26 05:20:50;;;;;;;42.70;22.48;;;2.70;99.90;;;;;;5040104;28;20043;-88
2022/03/26 05:23:16;;;;;;;44.65;23.20;;;2.80;99.90;;;;;;5020992;28;20094;-89
2022/03/26 05:25:42;;;;;;;43.17;22.75;;;2.80;99.90;;;;;;5026693;28;20045;-89
2022/03/26 05:28:08;;;;;;;52.30;20.50;;;2.80;99.90;;;;;;5072925;28;20036;-88
2022/03/26 05:30:34;;;;;;;41.05;21.05;;;3.40;99.90;;;;;;5070710;28;20047;-88
2022/03/26 05:33:00;;;;;;;52.20;22.92;;;2.90;99.90;;;;;;5043336;28;20052;-88
2022/03/26 05:35:27;;;;;;;39.47;18.93;;;3.60;99.90;;;;;;5037734;28;20052;-88
2022/03/26 05:37:53;;;;;;;41.53;17.85;;;3.30;99.90;;;;;;5057811;28;20063;-88
2022/03/26 05:40:21;;;;;;;38.40;17.97;;;2.90;99.90;;;;;;5040138;28;20418;-88
2022/03/26 05:42:48;;;;;;;42.00;18.13;;;2.80;99.90;;;;;;5038807;28;20399;-89
2022/03/26 05:45:14;;;;;;;41.67;20.55;;;2.80;99.90;;;;;;5075070;28;20048;-88
2022/03/26 05:47:40;;;;;;;39.60;18.52;;;2.80;99.90;;;;;;5074257;28;20055;-89
2022/03/26 05:50:08;;;;;;;30.67;17.33;;;2.80;99.90;;;;;;5039875;28;20037;-88
2022/03/26 05:52:34;;;;;;;46.85;22.63;;;2.80;99.90;;;;;;5072941;28;20055;-89
2022/03/26 05:55:04;;;;;;;46.15;21.08;;;2.80;99.90;;;;;;5019752;28;20131;-88
2022/03/26 05:57:30;;;;;;;32.60;18.90;;;2.90;99.90;;;;;;5055655;28;20127;-89
2022/03/26 05:59:55;;;;;;;46.10;21.23;;;3.20;99.90;;;;;;5090158;28;20127;-89
2022/03/26 06:02:21;;;;;;;46.00;19.60;;;3.90;99.90;;;;;;5084684;28;20049;-90
2022/03/26 06:04:50;;;;;;;57.47;21.50;;;2.90;99.90;;;;;;5056342;28;20098;-89
2022/03/26 06:07:16;;;;;;;41.05;21.02;;;3.00;99.90;;;;;;5057136;28;20053;-90
2022/03/26 06:09:41;;;;;;;38.03;20.63;;;3.00;99.90;;;;;;5039417;28;20044;-87
2022/03/26 06:12:08;;;;;;;49.00;23.80;;;3.00;99.90;;;;;;5039571;28;20052;-88
2022/03/26 06:14:34;;;;;;;43.93;20.30;;;3.10;99.90;;;;;;5039564;28;20127;-88
2022/03/26 06:17:00;;;;;;;49.27;20.87;;;3.40;99.90;;;;;;5039144;28;20363;-88
2022/03/26 06:19:26;;;;;;;46.63;21.40;;;3.30;99.90;;;;;;5040201;28;20293;-83
2022/03/26 06:21:52;;;;;;;46.33;22.73;;;4.40;99.90;;;;;;5060356;28;20041;-86
2022/03/26 06:24:18;;;;;;;55.08;25.65;;;4.00;99.90;;;;;;5045856;28;20049;-84
2022/03/26 06:26:48;;;;;;;47.55;26.15;;;4.30;99.90;;;;;;5077643;28;20051;-84
2022/03/26 06:29:15;;;;;;;45.45;25.40;;;4.70;99.90;;;;;;5078208;28;20055;-84
2022/03/26 06:39:09;;;;;;;41.65;25.17;;;5.90;99.90;;;;;;5074019;28;20051;-84
2022/03/26 06:41:41;;;;;;;52.72;29.00;;;6.40;99.90;;;;;;5056985;28;20056;-83
2022/03/26 06:44:08;;;;;;;66.93;28.90;;;6.70;99.90;;;;;;5057390;28;20047;-83
2022/03/26 06:46:34;;;;;;;;;;;7.10;99.90;;;;;;5057790;28;20044;-84
2022/03/26 06:49:11;;;;;;;48.83;26.25;;;7.50;99.90;;;;;;5056624;28;20003;-84
2022/03/26 06:55:18;;;;;;;47.13;27.77;;;8.40;99.90;;;;;;5074063;28;20760;-84
2022/03/26 06:57:44;;;;;;;52.38;29.80;;;8.90;99.90;;;;;;5056541;28;20170;-83
2022/03/26 07:00:15;;;;;;;49.13;27.88;;;9.20;99.90;;;;;;5072820;28;20048;-85
2022/03/26 07:02:41;;;;;;;54.70;29.02;;;9.40;99.90;;;;;;5073626;28;20041;-81
2022/03/26 07:05:08;;;;;;;54.43;28.43;;;9.60;99.90;;;;;;5023020;28;20130;-83
2022/03/26 07:07:34;;;;;;;53.55;27.05;;;10.00;99.90;;;;;;5077153;28;20066;-84
2022/03/26 07:09:59;;;;;;;44.20;26.50;;;10.40;99.90;;;;;;5061713;28;20041;-84
2022/03/26 07:12:28;;;;;;;43.75;27.15;;;10.70;99.90;;;;;;5053897;28;20051;-84
2022/03/26 07:14:54;;;;;;;48.63;26.08;;;11.00;99.90;;;;;;5060196;28;20051;-87
2022/03/26 07:17:20;;;;;;;44.10;25.17;;;11.10;99.90;;;;;;5065554;28;20074;-88
2022/03/26 07:19:49;;;;;;;44.97;24.87;;;11.10;99.90;;;;;;5038567;28;20036;-88
2022/03/26 07:22:15;;;;;;;40.65;24.35;;;11.10;99.90;;;;;;5052738;28;20048;-88
2022/03/26 07:24:41;;;;;;;41.00;23.88;;;11.10;99.90;;;;;;5051334;28;20040;-85
2022/03/26 07:27:06;;;;;;;41.72;22.70;;;11.30;99.90;;;;;;5071100;28;20043;-86
2022/03/26 07:29:33;;;;;;;39.87;22.63;;;11.60;99.90;;;;;;5054744;28;20051;-87
2022/03/26 07:31:59;;;;;;;43.35;25.25;;;11.90;99.90;;;;;;5052944;28;20063;-91
2022/03/26 07:34:26;;;;;;;48.42;24.60;;;12.20;99.90;;;;;;5044232;28;20128;-86
2022/03/26 07:36:53;;;;;;;40.28;23.25;;;12.40;99.90;;;;;;5043468;28;20483;-86
2022/03/26 07:39:19;;;;;;;43.50;23.35;;;12.60;99.90;;;;;;5054021;28;20052;-87
2022/03/26 07:41:45;;;;;;;38.30;22.75;;;13.00;99.90;;;;;;5061647;28;20040;-88
2022/03/26 07:44:11;;;;;;;34.78;22.50;;;13.30;99.90;;;;;;5080992;28;20483;-87
2022/03/26 07:46:36;;;;;;;43.80;23.30;;;13.50;99.90;;;;;;5037343;28;20432;-85
2022/03/26 07:49:05;;;;;;;36.42;23.02;;;13.70;99.90;;;;;;5035584;28;20045;-89
2022/03/26 07:51:31;;;;;;;40.75;23.90;;;13.90;99.90;;;;;;5018702;28;20614;-86
2022/03/26 07:53:56;;;;;;;38.45;22.58;;;14.20;99.90;;;;;;5056049;28;20135;-87
2022/03/26 07:56:22;;;;;;;41.20;21.45;;;14.10;99.90;;;;;;5070113;28;20040;-86
2022/03/26 07:58:49;;;;;;;36.58;21.67;;;14.50;99.90;;;;;;5061107;28;20063;-87
2022/03/26 08:01:15;;;;;;;43.20;20.83;;;14.60;99.90;;;;;;5055061;28;20136;-87
2022/03/26 08:03:41;;;;;;;37.47;21.50;;;14.70;99.90;;;;;;5044565;28;20075;-86
2022/03/26 08:06:07;;;;;;;34.67;20.05;;;15.00;99.90;;;;;;5050260;28;20103;-87
2022/03/26 08:08:33;;;;;;;34.70;21.48;;;15.10;99.60;;;;;;5042517;28;20048;-89
2022/03/26 08:11:00;;;;;;;29.65;19.88;;;15.60;98.60;;;;;;5079242;28;20063;-85
2022/03/26 08:13:25;;;;;;;32.47;19.40;;;15.80;97.30;;;;;;5060690;28;20051;-86
2022/03/26 08:15:51;;;;;;;34.88;19.15;;;15.60;95.80;;;;;;5037632;28;20041;-86
2022/03/26 08:18:17;;;;;;;29.23;18.48;;;16.20;94.90;;;;;;5046827;28;20123;-86
2022/03/26 08:20:46;;;;;;;30.80;17.73;;;16.30;93.70;;;;;;5063626;28;20041;-85
2022/03/26 08:23:12;;;;;;;32.60;19.65;;;16.40;91.60;;;;;;5034315;28;20051;-86
2022/03/26 08:28:22;;;;;;;36.13;20.10;;;16.20;90.80;;;;;;5067961;28;20169;-84
2022/03/26 08:30:48;;;;;;;37.38;22.20;;;16.50;90.40;;;;;;5037270;28;20044;-86
2022/03/26 08:33:13;;;;;;;29.08;19.25;;;16.50;89.50;;;;;;5061057;28;20048;-85
2022/03/26 08:35:40;;;;;;;32.53;19.35;;;16.60;87.90;;;;;;5055534;28;20079;-86
2022/03/26 08:38:10;;;;;;;31.05;19.48;;;16.80;87.40;;;;;;5062943;28;20040;-84
2022/03/26 08:40:36;;;;;;;24.70;17.35;;;16.80;86.60;;;;;;5073604;28;20060;-82
2022/03/26 08:43:03;;;;;;;35.13;19.30;;;16.70;85.70;;;;;;5056784;28;20070;-85
2022/03/26 08:45:29;;;;;;;29.83;19.15;;;16.70;85.60;;;;;;5060614;28;20052;-85
2022/03/26 08:47:56;;;;;;;29.98;18.90;;;16.70;85.20;;;;;;5061118;28;20094;-86
2022/03/26 08:50:23;;;;;;;31.67;20.55;;;16.80;84.60;;;;;;5054126;28;20055;-86
2022/03/26 08:52:49;;;;;;;32.63;17.83;;;17.00;83.40;;;;;;5062350;28;20044;-83
2022/03/26 08:55:17;;;;;;;28.90;17.52;;;17.10;83.20;;;;;;5062715;28;20083;-84
2022/03/26 08:57:43;;;;;;;31.45;17.85;;;17.30;82.30;;;;;;5074625;28;20060;-88
2022/03/26 09:00:11;;;;;;;33.45;16.45;;;17.20;82.00;;;;;;5045467;28;20047;-86
2022/03/26 09:02:38;;;;;;;27.15;14.60;;;17.20;81.40;;;;;;5047131;28;20063;-84
2022/03/26 09:05:06;;;;;;;31.05;15.55;;;17.30;81.00;;;;;;5040879;28;20044;-84
2022/03/26 09:07:35;;;;;;;22.02;12.73;;;17.40;80.90;;;;;;5075272;28;20497;-84
2022/03/26 09:10:06;;;;;;;24.38;13.30;;;17.40;80.40;;;;;;5081966;28;20043;-84
2022/03/26 09:12:33;;;;;;;22.83;14.52;;;17.50;80.70;;;;;;5059683;28;20048;-86
2022/03/26 09:14:59;;;;;;;28.33;14.55;;;17.60;80.80;;;;;;5075408;28;20146;-86
2022/03/26 09:17:27;;;;;;;;;;;17.60;81.20;;;;;;5082952;28;20159;-84
2022/03/26 09:19:54;;;;;;;25.10;12.80;;;17.70;81.00;;;;;;5058621;28;19946;-89
2022/03/26 09:22:20;;;;;;;25.60;12.55;;;17.40;82.70;;;;;;5076268;28;20049;-85
2022/03/26 09:24:45;;;;;;;23.52;11.85;;;17.10;83.20;;;;;;5050248;28;20044;-83
2022/03/26 09:27:11;;;;;;;21.85;13.68;;;17.00;83.70;;;;;;5060829;28;20475;-84
2022/03/26 09:29:37;;;;;;;21.55;12.50;;;16.10;83.60;;;;;;5081202;28;20040;-83
2022/03/26 09:32:04;;;;;;;22.75;12.65;;;17.00;84.30;;;;;;5060032;28;20050;-83
2022/03/26 09:34:30;;;;;;;19.80;12.75;;;17.00;84.50;;;;;;5043399;28;20135;-84
2022/03/26 09:36:56;;;;;;;29.15;14.43;;;17.20;84.80;;;;;;5079710;28;20152;-84
2022/03/26 09:39:21;;;;;;;19.75;12.20;;;17.40;84.70;;;;;;5081171;28;20040;-84
2022/03/26 09:41:51;;;;;;;21.35;12.60;;;17.70;84.50;;;;;;5069336;28;20101;-86
2022/03/26 09:44:18;;;;;;;19.95;13.45;;;17.80;83.60;;;;;;5054371;28;20066;-88
2022/03/26 09:46:43;;;;;;;20.67;12.02;;;18.00;83.80;;;;;;5095854;28;20050;-85
2022/03/26 09:49:10;;;;;;;25.10;11.43;;;18.20;83.40;;;;;;5072866;28;20056;-87
2022/03/26 09:51:36;;;;;;;15.45;9.85;;;18.20;82.90;;;;;;5061209;28;20071;-86
2022/03/26 09:54:08;;;;;;;18.10;9.82;;;18.40;81.90;;;;;;5083183;28;20036;-86
2022/03/26 09:56:34;;;;;;;17.40;11.35;;;18.40;81.00;;;;;;5027207;28;20057;-89
2022/03/26 09:59:00;;;;;;;9.63;8.13;;;18.40;81.10;;;;;;5048592;28;20108;-88
2022/03/26 10:01:26;;;;;;;14.15;9.60;;;18.50;80.80;;;;;;5051007;28;20273;-87
2022/03/26 10:04:13;;;;;;;14.98;8.70;;;18.60;80.40;;;;;;5050505;28;20036;-88
2022/03/26 10:06:48;;;;;;;16.38;10.10;;;18.70;79.10;;;;;;5071459;28;20080;-87
2022/03/26 10:09:44;;;;;;;13.40;8.35;;;18.50;79.00;;;;;;5057852;28;20048;-90
2022/03/26 10:12:16;;;;;;;15.68;7.70;;;18.60;78.60;;;;;;5073111;28;20040;-87
2022/03/26 10:14:59;;;;;;;11.88;7.45;;;18.80;78.50;;;;;;5068024;28;20047;-85
2022/03/26 10:17:26;;;;;;;12.60;7.60;;;18.90;77.10;;;;;;5092300;28;20113;-89
2022/03/26 10:19:55;;;;;;;12.73;7.00;;;19.00;77.10;;;;;;5056771;28;20070;-85
2022/03/26 10:22:45;;;;;;;11.27;6.63;;;19.10;76.60;;;;;;5066029;28;20045;-84
2022/03/26 10:25:19;;;;;;;12.57;6.70;;;19.20;76.60;;;;;;5066794;28;20037;-83
2022/03/26 10:27:49;;;;;;;13.05;7.22;;;19.20;75.50;;;;;;5057068;28;20036;-86
2022/03/26 10:30:17;;;;;;;11.52;7.40;;;19.40;75.40;;;;;;5090817;28;20044;-85
2022/03/26 10:32:45;;;;;;;15.05;6.57;;;19.30;75.00;;;;;;5071029;28;20066;-85
2022/03/26 10:35:22;;;;;;;8.50;5.57;;;19.30;75.20;;;;;;5081019;28;20040;-84
2022/03/26 10:37:59;;;;;;;12.90;7.13;;;19.10;74.50;;;;;;5055624;28;20043;-85
2022/03/26 10:40:32;;;;;;;9.13;6.18;;;19.00;74.80;;;;;;5101528;28;20101;-85
2022/03/26 10:43:04;;;;;;;15.85;8.05;;;18.70;75.10;;;;;;5060244;28;20052;-85
2022/03/26 10:45:32;;;;;;;8.55;5.90;;;18.80;76.20;;;;;;5050625;28;20044;-84
2022/03/26 10:47:59;;;;;;;10.00;7.18;;;18.90;76.30;;;;;;5103456;28;20040;-84
2022/03/26 10:50:30;;;;;;;12.20;8.65;;;19.00;76.80;;;;;;5077842;28;20037;-84
2022/03/26 10:52:56;;;;;;;12.13;6.38;;;19.10;76.10;;;;;;5065817;28;20073;-82
2022/03/26 10:55:23;;;;;;;10.80;6.80;;;19.10;76.10;;;;;;5097432;28;20075;-84
2022/03/26 10:57:50;;;;;;;9.73;6.93;;;19.20;76.20;;;;;;5089763;28;20373;-83
2022/03/26 11:00:17;;;;;;;12.50;6.65;;;19.20;76.40;;;;;;5065919;28;20053;-83
2022/03/26 11:02:44;;;;;;;9.75;5.35;;;19.20;76.60;;;;;;5048554;28;20056;-84
2022/03/26 11:05:11;;;;;;;6.47;5.13;;;19.10;76.30;;;;;;5066618;28;20047;-83
2022/03/26 11:07:40;;;;;;;7.25;4.53;;;19.10;75.80;;;;;;5063890;28;20091;-84
2022/03/26 11:10:07;;;;;;;7.68;5.30;;;19.10;75.50;;;;;;5065364;28;20040;-83
2022/03/26 11:12:33;;;;;;;7.45;4.82;;;19.10;75.00;;;;;;5054042;28;20134;-86
2022/03/26 11:15:03;;;;;;;7.43;4.40;;;19.00;75.20;;;;;;5075197;28;20080;-84
2022/03/26 11:17:55;;;;;;;6.15;4.93;;;19.10;74.90;;;;;;5063784;28;20506;-85
2022/03/26 11:21:10;;;;;;;6.53;4.47;;;19.10;73.90;;;;;;5061047;28;20044;-84
2022/03/26 11:24:27;;;;;;;8.80;5.47;;;19.30;74.60;;;;;;5036683;28;20071;-84
2022/03/26 11:27:20;;;;;;;7.55;4.38;;;19.30;73.40;;;;;;5044278;28;20049;-84
2022/03/26 11:30:02;;;;;;;5.82;4.00;;;19.40;72.70;;;;;;5071608;28;20095;-84
2022/03/26 11:32:43;;;;;;;7.55;3.53;;;19.40;73.40;;;;;;5073796;28;20048;-84
2022/03/26 11:35:11;;;;;;;8.18;4.05;;;19.40;73.70;;;;;;5062756;28;20515;-85
2022/03/26 11:37:56;;;;;;;6.13;4.45;;;19.40;73.40;;;;;;5061821;28;20040;-86
2022/03/26 11:40:45;;;;;;;5.53;3.22;;;19.70;72.60;;;;;;5071474;28;20036;-89
2022/03/26 11:43:12;;;;;;;5.80;3.67;;;19.70;71.60;;;;;;5051197;28;20046;-86
2022/03/26 11:51:27;;;;;;;4.90;4.30;;;20.00;72.10;;;;;;5061853;28;20048;-83
2022/03/26 11:54:12;;;;;;;7.47;3.70;;;20.20;70.50;;;;;;5050430;28;20053;-84
2022/03/26 11:56:38;;;;;;;6.30;4.03;;;20.10;70.20;;;;;;5051381;28;20128;-89
2022/03/26 11:59:04;;;;;;;3.78;2.92;;;20.10;70.50;;;;;;5045865;28;20131;-85
2022/03/26 12:01:45;;;;;;;5.47;4.07;;;20.00;70.40;;;;;;5059194;28;20056;-85
2022/03/26 12:04:16;;;;;;;4.82;3.53;;;20.10;69.70;;;;;;5066856;28;20101;-85
2022/03/26 12:06:47;;;;;;;4.28;3.85;;;19.90;70.00;;;;;;5068843;28;20051;-85
2022/03/26 12:09:39;;;;;;;7.82;3.67;;;19.80;70.50;;;;;;5069096;28;20547;-90
2022/03/26 12:12:05;;;;;;;7.18;3.47;;;19.80;70.00;;;;;;5053997;28;20056;-86
2022/03/26 12:14:35;;;;;;;7.70;3.80;;;20.10;70.60;;;;;;5075058;28;20044;-86
2022/03/26 12:17:05;;;;;;;4.53;3.08;;;20.10;70.50;;;;;;5049919;28;20076;-84
2022/03/26 12:19:49;;;;;;;5.25;3.95;;;20.10;70.40;;;;;;5068716;28;20048;-86
2022/03/26 12:22:26;;;;;;;5.30;3.60;;;19.60;69.70;;;;;;5073085;28;20071;-86
2022/03/26 12:24:54;;;;;;;4.97;3.33;;;19.70;70.50;;;;;;5042330;28;20048;-85
2022/03/26 12:27:20;;;;;;;4.32;2.83;;;19.80;70.50;;;;;;5053255;28;20041;-85
2022/03/26 12:29:46;;;;;;;6.72;2.95;;;20.00;70.60;;;;;;5098708;28;20052;-86
2022/03/26 12:32:12;;;;;;;;;;;20.10;70.30;;;;;;5051887;28;20048;-85
2022/03/26 12:34:52;;;;;;;4.88;2.78;;;20.10;69.20;;;;;;5067605;28;20367;-87
2022/03/26 12:37:18;;;;;;;5.72;2.60;;;20.30;69.40;;;;;;5051922;28;20060;-85
2022/03/26 12:39:45;;;;;;;2.38;2.17;;;20.20;70.30;;;;;;5067110;28;20107;-87
2022/03/26 12:42:11;;;;;;;4.78;3.13;;;20.50;69.60;;;;;;5051315;28;20123;-86
2022/03/26 12:44:37;;;;;;;6.55;2.10;;;20.80;69.10;;;;;;5054169;28;20052;-85
2022/03/26 12:47:04;;;;;;;3.97;2.28;;;20.90;68.40;;;;;;5051709;28;20236;-86
2022/03/26 12:49:34;;;;;;;3.88;2.45;;;20.70;67.50;;;;;;5070283;28;20486;-86
2022/03/26 12:52:00;;;;;;;3.08;2.00;;;20.70;67.30;;;;;;5036826;28;20139;-85
2022/03/26 12:54:29;;;;;;;2.88;2.22;;;20.50;67.30;;;;;;5052286;28;20048;-86
2022/03/26 12:56:54;;;;;;;3.75;2.42;;;20.40;66.00;;;;;;5033086;28;20045;-86
2022/03/26 12:59:20;;;;;;;2.92;2.25;;;20.50;67.20;;;;;;5048863;28;20499;-86
2022/03/26 13:01:49;;;;;;;3.22;2.50;;;20.70;67.10;;;;;;5069547;28;20043;-87